• Join FlightAware (Why Join?)
  • Login
  • US Flag 
09:07PM EDT


 

Airport Tracker/Info


-or-


 

Live Flight TrackerFlight Track Log ✈ TAM3023 ✈ 29-Jul-2013 ✈ SBBR / BSB - SBRJ / SDU

Flight Track Log - Related Links

Times and Time Zones

All times are in EDT time to prevent confusion due to time zone crossing. See the TAM3023 flight status page for this flight to view local times or setup timezone preferences in your user account.

Time Position Orientation Groundspeed Altitude Reporting Facility
EDT Latitude Longitude Course Direction KTS MPH feet Rate Location/Type
08:43AM -18.4877 -46.2002 148° Southeast  Level Estimated
08:44AM -18.5670 -46.1475 148° Southeast  Level Estimated
08:45AM -18.6463 -46.0948 148° Southeast  Level Estimated
08:46AM -18.7256 -46.0420 148° Southeast  Level Estimated
08:47AM -18.8049 -45.9892 148° Southeast  Level Estimated
08:48AM -18.8841 -45.9363 148° Southeast  Level Estimated
08:49AM -18.9634 -45.8834 148° Southeast  Level Estimated
08:50AM -19.0426 -45.8304 148° Southeast  Level Estimated
08:51AM -19.1218 -45.7774 148° Southeast  Level Estimated
08:52AM -19.2010 -45.7243 148° Southeast  Level Estimated
08:53AM -19.2802 -45.6712 148° Southeast  Level Estimated
08:54AM -19.3594 -45.6180 148° Southeast  Level Estimated
08:55AM -19.4385 -45.5648 148° Southeast  Level Estimated
08:56AM -19.5177 -45.5115 148° Southeast  Level Estimated
08:57AM -19.5968 -45.4582 148° Southeast  Level Estimated
08:58AM -19.6759 -45.4048 148° Southeast  Level Estimated
08:59AM -19.7550 -45.3514 148° Southeast  Level Estimated
09:00AM -19.8340 -45.2979 148° Southeast  Level Estimated
09:01AM -19.9131 -45.2443 148° Southeast  Level Estimated
09:02AM -19.9921 -45.1907 147° Southeast  Level Estimated
09:03AM -20.0711 -45.1371 147° Southeast  Level Estimated
09:04AM -20.1502 -45.0834 147° Southeast  Level Estimated
09:05AM -20.2292 -45.0296 147° Southeast  Level Estimated
09:06AM -20.3081 -44.9758 147° Southeast  Level Estimated
09:07AM -20.3871 -44.9219 147° Southeast  Level Estimated
09:08AM -20.4660 -44.8680 147° Southeast  Level Estimated
09:09AM -20.5450 -44.8140 147° Southeast  Level Estimated
09:10AM -20.6239 -44.7600 147° Southeast  Level Estimated
09:11AM -20.7027 -44.7059 147° Southeast  Level Estimated
09:12AM -20.7816 -44.6517 147° Southeast  Level Estimated
09:13AM -20.8605 -44.5975 147° Southeast  Level Estimated
09:14AM -20.9393 -44.5433 147° Southeast  Level Estimated
09:15AM -21.0181 -44.4889 147° Southeast  Level Estimated
09:16AM -21.0970 -44.4346 147° Southeast  Level Estimated
09:17AM -21.1757 -44.3801 147° Southeast  Level Estimated
09:18AM -21.2545 -44.3256 147° Southeast  Level Estimated
09:19AM -21.3333 -44.2711 147° Southeast  Level Estimated
09:20AM -21.4120 -44.2165 147° Southeast  Level Estimated
09:21AM -21.4907 -44.1618 147° Southeast  Level Estimated
09:22AM -21.5694 -44.1071 147° Southeast  Level Estimated
09:23AM -21.6481 -44.0523 147° Southeast  Level Estimated
09:24AM -21.7268 -43.9974 147° Southeast  Level Estimated
09:25AM -21.8054 -43.9425 147° Southeast  Level Estimated
09:26AM -21.8841 -43.8876 147° Southeast  Level Estimated
09:27AM -21.9627 -43.8325 147° Southeast  Level Estimated
09:28AM -22.0413 -43.7774 147° Southeast  Level Estimated
09:29AM -22.1198 -43.7223 147° Southeast  Level Estimated
09:30AM -22.1984 -43.6671 147° Southeast  Level Estimated
09:31AM -22.2769 -43.6118 147° Southeast  Level Estimated
09:32AM -22.3554 -43.5565 147° Southeast  Level Estimated
09:33AM -22.4339 -43.5011 147° Southeast  Level Estimated
09:34AM -22.5124 -43.4456 147° Southeast  Level Estimated
09:35AM -22.5909 -43.3901 147° Southeast  Level Estimated
09:36AM -22.6693 -43.3345 147° Southeast  Level Estimated
09:37AM -22.7477 -43.2788 147° Southeast  Level Estimated
09:38AM -22.8262 -43.2231 147° Southeast  Level Estimated
09:39AM -22.9045 -43.1674 147° Southeast  Level Estimated
09:40AM -22.9105 -43.1631 147° Southeast  Level Estimated
09:41AM -22.9105 -43.1631 250° West  Level Estimated
09:42AM -22.9105 -43.1631 250° West  Level Estimated
09:43AM -22.9105 -43.1631 250° West  Level Estimated
09:44AM -22.9105 -43.1631 250° West  Level Estimated
09:45AM -22.9105 -43.1631 250° West  Level Estimated
09:46AM -22.9105 -43.1631 250° West  Level Estimated
09:47AM -22.9105 -43.1631 250° West  Level Estimated
09:48AM -22.9105 -43.1631 250° West  Level Estimated
09:49AM -22.9105 -43.1631 250° West  Level Estimated
09:50AM -22.9105 -43.1631 250° West  Level Estimated
09:51AM -22.9105 -43.1631 250° West  Level Estimated
09:52AM -22.9105 -43.1631 250° West  Level Estimated
09:53AM -22.9105 -43.1631 250° West  Level Estimated
09:54AM -22.9105 -43.1631 250° West  Level Estimated
09:55AM -22.9105 -43.1631 250° West  Level Estimated